sensor_id;sensor_type;location;lat;lon;timestamp;P1;durP1;ratioP1;P2;durP2;ratioP2
14121;SDS011;7139;48.114;11.442;2023-11-18T00:01:09;7.77;;;7.00;;
14121;SDS011;7139;48.114;11.442;2023-11-18T00:03:37;7.77;;;7.07;;
14121;SDS011;7139;48.114;11.442;2023-11-18T00:06:06;7.27;;;6.63;;
14121;SDS011;7139;48.114;11.442;2023-11-18T00:08:33;7.60;;;6.90;;
14121;SDS011;7139;48.114;11.442;2023-11-18T00:11:01;7.17;;;6.47;;
14121;SDS011;7139;48.114;11.442;2023-11-18T00:13:28;7.37;;;6.60;;
14121;SDS011;7139;48.114;11.442;2023-11-18T00:15:55;7.87;;;7.07;;
14121;SDS011;7139;48.114;11.442;2023-11-18T00:18:22;6.90;;;6.23;;
14121;SDS011;7139;48.114;11.442;2023-11-18T00:20:50;6.50;;;5.90;;
14121;SDS011;7139;48.114;11.442;2023-11-18T00:23:18;6.60;;;6.00;;
14121;SDS011;7139;48.114;11.442;2023-11-18T00:25:45;7.30;;;6.60;;
14121;SDS011;7139;48.114;11.442;2023-11-18T00:28:12;5.97;;;5.47;;
14121;SDS011;7139;48.114;11.442;2023-11-18T00:30:40;5.77;;;5.27;;
14121;SDS011;7139;48.114;11.442;2023-11-18T00:33:07;5.10;;;4.70;;
14121;SDS011;7139;48.114;11.442;2023-11-18T00:35:34;5.50;;;5.10;;
14121;SDS011;7139;48.114;11.442;2023-11-18T00:38:01;5.33;;;4.83;;
14121;SDS011;7139;48.114;11.442;2023-11-18T00:40:29;4.93;;;4.53;;
14121;SDS011;7139;48.114;11.442;2023-11-18T00:42:57;4.57;;;4.17;;
14121;SDS011;7139;48.114;11.442;2023-11-18T00:45:24;4.67;;;4.27;;
14121;SDS011;7139;48.114;11.442;2023-11-18T00:47:52;4.93;;;4.43;;
14121;SDS011;7139;48.114;11.442;2023-11-18T00:50:19;9.87;;;7.67;;
14121;SDS011;7139;48.114;11.442;2023-11-18T00:52:46;4.40;;;4.00;;
14121;SDS011;7139;48.114;11.442;2023-11-18T00:55:15;4.27;;;3.93;;
14121;SDS011;7139;48.114;11.442;2023-11-18T00:57:44;4.27;;;3.97;;
14121;SDS011;7139;48.114;11.442;2023-11-18T01:00:12;3.60;;;3.30;;
14121;SDS011;7139;48.114;11.442;2023-11-18T01:02:46;2.80;;;2.60;;
14121;SDS011;7139;48.114;11.442;2023-11-18T01:05:14;3.40;;;3.10;;
14121;SDS011;7139;48.114;11.442;2023-11-18T01:07:41;3.00;;;2.70;;
14121;SDS011;7139;48.114;11.442;2023-11-18T01:10:09;2.63;;;2.43;;
14121;SDS011;7139;48.114;11.442;2023-11-18T01:12:36;2.90;;;2.70;;
14121;SDS011;7139;48.114;11.442;2023-11-18T01:15:05;2.80;;;2.60;;
14121;SDS011;7139;48.114;11.442;2023-11-18T01:17:35;2.97;;;2.77;;
14121;SDS011;7139;48.114;11.442;2023-11-18T01:20:02;3.07;;;2.87;;
14121;SDS011;7139;48.114;11.442;2023-11-18T01:22:34;3.00;;;2.63;;
14121;SDS011;7139;48.114;11.442;2023-11-18T01:25:03;2.80;;;2.60;;
14121;SDS011;7139;48.114;11.442;2023-11-18T01:27:30;2.90;;;2.70;;
14121;SDS011;7139;48.114;11.442;2023-11-18T01:29:58;3.40;;;3.10;;
14121;SDS011;7139;48.114;11.442;2023-11-18T01:32:27;3.00;;;2.80;;
14121;SDS011;7139;48.114;11.442;2023-11-18T01:34:55;3.27;;;2.80;;
14121;SDS011;7139;48.114;11.442;2023-11-18T01:37:22;2.93;;;2.70;;
14121;SDS011;7139;48.114;11.442;2023-11-18T01:39:50;3.00;;;2.80;;
14121;SDS011;7139;48.114;11.442;2023-11-18T01:42:17;2.80;;;2.60;;
14121;SDS011;7139;48.114;11.442;2023-11-18T01:44:44;4.30;;;3.10;;
14121;SDS011;7139;48.114;11.442;2023-11-18T01:47:12;3.10;;;2.80;;
14121;SDS011;7139;48.114;11.442;2023-11-18T01:49:40;3.07;;;2.87;;
14121;SDS011;7139;48.114;11.442;2023-11-18T01:52:08;3.30;;;3.00;;
14121;SDS011;7139;48.114;11.442;2023-11-18T01:54:37;3.20;;;3.00;;
14121;SDS011;7139;48.114;11.442;2023-11-18T01:57:05;4.13;;;3.73;;
14121;SDS011;7139;48.114;11.442;2023-11-18T01:59:34;3.40;;;3.10;;
14121;SDS011;7139;48.114;11.442;2023-11-18T02:02:03;3.03;;;2.83;;
14121;SDS011;7139;48.114;11.442;2023-11-18T02:04:31;3.50;;;3.20;;
14121;SDS011;7139;48.114;11.442;2023-11-18T02:06:59;3.03;;;2.80;;
14121;SDS011;7139;48.114;11.442;2023-11-18T02:09:29;3.50;;;3.20;;
14121;SDS011;7139;48.114;11.442;2023-11-18T02:11:57;3.90;;;3.30;;
14121;SDS011;7139;48.114;11.442;2023-11-18T02:14:26;3.57;;;3.27;;
14121;SDS011;7139;48.114;11.442;2023-11-18T02:16:53;3.60;;;3.30;;
14121;SDS011;7139;48.114;11.442;2023-11-18T02:19:23;3.80;;;3.50;;
14121;SDS011;7139;48.114;11.442;2023-11-18T02:21:52;3.50;;;3.20;;
14121;SDS011;7139;48.114;11.442;2023-11-18T02:24:26;4.83;;;3.00;;
14121;SDS011;7139;48.114;11.442;2023-11-18T02:26:57;3.50;;;3.20;;
14121;SDS011;7139;48.114;11.442;2023-11-18T02:29:24;3.20;;;3.00;;
14121;SDS011;7139;48.114;11.442;2023-11-18T02:31:52;3.73;;;3.43;;
14121;SDS011;7139;48.114;11.442;2023-11-18T02:34:22;3.43;;;3.13;;
14121;SDS011;7139;48.114;11.442;2023-11-18T02:36:51;3.80;;;3.50;;
14121;SDS011;7139;48.114;11.442;2023-11-18T02:39:21;3.50;;;3.20;;
14121;SDS011;7139;48.114;11.442;2023-11-18T02:41:51;3.90;;;3.60;;
14121;SDS011;7139;48.114;11.442;2023-11-18T02:44:23;3.70;;;3.30;;
14121;SDS011;7139;48.114;11.442;2023-11-18T02:46:50;3.60;;;3.30;;
14121;SDS011;7139;48.114;11.442;2023-11-18T02:49:18;3.77;;;3.47;;
14121;SDS011;7139;48.114;11.442;2023-11-18T02:51:45;3.90;;;3.60;;
14121;SDS011;7139;48.114;11.442;2023-11-18T02:54:12;3.53;;;3.23;;
14121;SDS011;7139;48.114;11.442;2023-11-18T02:56:41;3.83;;;3.53;;
14121;SDS011;7139;48.114;11.442;2023-11-18T02:59:08;3.60;;;3.30;;
14121;SDS011;7139;48.114;11.442;2023-11-18T03:01:37;4.23;;;3.40;;
14121;SDS011;7139;48.114;11.442;2023-11-18T03:04:05;4.03;;;3.73;;
14121;SDS011;7139;48.114;11.442;2023-11-18T03:06:32;3.80;;;3.50;;
14121;SDS011;7139;48.114;11.442;2023-11-18T03:09:00;3.80;;;3.50;;
14121;SDS011;7139;48.114;11.442;2023-11-18T03:11:28;3.80;;;3.47;;
14121;SDS011;7139;48.114;11.442;2023-11-18T03:13:56;4.30;;;3.90;;
14121;SDS011;7139;48.114;11.442;2023-11-18T03:16:23;4.40;;;4.00;;
14121;SDS011;7139;48.114;11.442;2023-11-18T03:18:52;4.30;;;3.90;;
14121;SDS011;7139;48.114;11.442;2023-11-18T03:21:20;4.30;;;3.90;;
14121;SDS011;7139;48.114;11.442;2023-11-18T03:23:47;4.17;;;3.80;;
14121;SDS011;7139;48.114;11.442;2023-11-18T03:26:14;5.03;;;4.60;;
14121;SDS011;7139;48.114;11.442;2023-11-18T03:28:41;4.73;;;4.20;;
14121;SDS011;7139;48.114;11.442;2023-11-18T03:31:08;4.47;;;4.07;;
14121;SDS011;7139;48.114;11.442;2023-11-18T03:33:37;4.30;;;3.90;;
14121;SDS011;7139;48.114;11.442;2023-11-18T03:36:06;4.37;;;3.97;;
14121;SDS011;7139;48.114;11.442;2023-11-18T03:38:37;3.90;;;3.60;;
14121;SDS011;7139;48.114;11.442;2023-11-18T03:41:04;4.40;;;4.00;;
14121;SDS011;7139;48.114;11.442;2023-11-18T03:43:33;4.90;;;4.43;;
14121;SDS011;7139;48.114;11.442;2023-11-18T03:46:00;5.17;;;4.67;;
14121;SDS011;7139;48.114;11.442;2023-11-18T03:48:27;4.63;;;4.23;;
14121;SDS011;7139;48.114;11.442;2023-11-18T03:50:55;5.30;;;4.90;;
14121;SDS011;7139;48.114;11.442;2023-11-18T03:53:23;6.17;;;5.57;;
14121;SDS011;7139;48.114;11.442;2023-11-18T03:55:50;5.07;;;4.67;;
14121;SDS011;7139;48.114;11.442;2023-11-18T03:58:18;7.37;;;6.00;;
14121;SDS011;7139;48.114;11.442;2023-11-18T04:00:45;4.73;;;4.33;;
14121;SDS011;7139;48.114;11.442;2023-11-18T04:03:12;5.60;;;5.10;;
14121;SDS011;7139;48.114;11.442;2023-11-18T04:05:39;5.33;;;4.83;;
14121;SDS011;7139;48.114;11.442;2023-11-18T04:08:06;5.47;;;4.97;;
14121;SDS011;7139;48.114;11.442;2023-11-18T04:10:34;5.53;;;5.03;;
14121;SDS011;7139;48.114;11.442;2023-11-18T04:13:02;5.50;;;5.00;;
14121;SDS011;7139;48.114;11.442;2023-11-18T04:15:29;5.53;;;5.03;;
14121;SDS011;7139;48.114;11.442;2023-11-18T04:17:56;5.67;;;5.17;;
14121;SDS011;7139;48.114;11.442;2023-11-18T04:20:23;5.50;;;5.00;;
14121;SDS011;7139;48.114;11.442;2023-11-18T04:22:50;5.73;;;5.23;;
14121;SDS011;7139;48.114;11.442;2023-11-18T04:25:17;6.17;;;5.10;;
14121;SDS011;7139;48.114;11.442;2023-11-18T04:27:47;5.43;;;4.83;;
14121;SDS011;7139;48.114;11.442;2023-11-18T04:30:14;5.60;;;5.10;;
14121;SDS011;7139;48.114;11.442;2023-11-18T04:32:42;5.27;;;4.77;;
14121;SDS011;7139;48.114;11.442;2023-11-18T04:35:09;5.00;;;4.50;;
14121;SDS011;7139;48.114;11.442;2023-11-18T04:37:37;5.10;;;4.60;;
14121;SDS011;7139;48.114;11.442;2023-11-18T04:40:08;5.23;;;4.73;;
14121;SDS011;7139;48.114;11.442;2023-11-18T04:42:36;5.27;;;4.80;;
14121;SDS011;7139;48.114;11.442;2023-11-18T04:45:04;5.73;;;4.63;;
14121;SDS011;7139;48.114;11.442;2023-11-18T04:47:34;4.83;;;4.43;;
14121;SDS011;7139;48.114;11.442;2023-11-18T04:50:01;5.70;;;5.10;;
14121;SDS011;7139;48.114;11.442;2023-11-18T04:52:29;4.90;;;4.50;;
14121;SDS011;7139;48.114;11.442;2023-11-18T04:54:57;4.50;;;4.10;;
14121;SDS011;7139;48.114;11.442;2023-11-18T04:57:25;4.93;;;4.43;;
14121;SDS011;7139;48.114;11.442;2023-11-18T04:59:52;5.47;;;4.97;;
14121;SDS011;7139;48.114;11.442;2023-11-18T05:02:21;5.90;;;5.30;;
14121;SDS011;7139;48.114;11.442;2023-11-18T05:04:48;6.33;;;5.20;;
14121;SDS011;7139;48.114;11.442;2023-11-18T05:07:15;5.73;;;5.13;;
14121;SDS011;7139;48.114;11.442;2023-11-18T05:09:43;5.77;;;5.27;;
14121;SDS011;7139;48.114;11.442;2023-11-18T05:12:10;5.77;;;5.27;;
14121;SDS011;7139;48.114;11.442;2023-11-18T05:14:37;5.77;;;5.10;;
14121;SDS011;7139;48.114;11.442;2023-11-18T05:17:04;5.87;;;5.33;;
14121;SDS011;7139;48.114;11.442;2023-11-18T05:19:32;5.87;;;5.37;;
14121;SDS011;7139;48.114;11.442;2023-11-18T05:22:00;5.70;;;5.10;;
14121;SDS011;7139;48.114;11.442;2023-11-18T05:24:27;5.70;;;5.10;;
14121;SDS011;7139;48.114;11.442;2023-11-18T05:26:54;6.00;;;5.40;;
14121;SDS011;7139;48.114;11.442;2023-11-18T05:29:21;5.73;;;4.90;;
14121;SDS011;7139;48.114;11.442;2023-11-18T05:31:50;5.47;;;4.97;;
14121;SDS011;7139;48.114;11.442;2023-11-18T05:34:17;5.57;;;5.07;;
14121;SDS011;7139;48.114;11.442;2023-11-18T05:36:47;5.00;;;4.60;;
14121;SDS011;7139;48.114;11.442;2023-11-18T05:39:19;5.27;;;4.83;;
14121;SDS011;7139;48.114;11.442;2023-11-18T05:41:46;5.10;;;4.70;;
14121;SDS011;7139;48.114;11.442;2023-11-18T05:44:15;5.17;;;4.67;;
14121;SDS011;7139;48.114;11.442;2023-11-18T05:46:44;5.27;;;4.77;;
14121;SDS011;7139;48.114;11.442;2023-11-18T05:49:12;5.13;;;4.63;;
14121;SDS011;7139;48.114;11.442;2023-11-18T05:51:39;5.73;;;5.13;;
14121;SDS011;7139;48.114;11.442;2023-11-18T05:54:08;5.27;;;4.87;;
14121;SDS011;7139;48.114;11.442;2023-11-18T05:56:35;5.20;;;4.77;;
14121;SDS011;7139;48.114;11.442;2023-11-18T05:59:02;4.83;;;4.43;;
14121;SDS011;7139;48.114;11.442;2023-11-18T06:01:29;5.30;;;4.80;;
14121;SDS011;7139;48.114;11.442;2023-11-18T06:03:56;5.43;;;4.93;;
14121;SDS011;7139;48.114;11.442;2023-11-18T06:06:25;4.97;;;4.20;;
14121;SDS011;7139;48.114;11.442;2023-11-18T06:08:52;4.43;;;4.03;;
14121;SDS011;7139;48.114;11.442;2023-11-18T06:11:21;4.90;;;4.50;;
14121;SDS011;7139;48.114;11.442;2023-11-18T06:13:49;5.07;;;4.40;;
14121;SDS011;7139;48.114;11.442;2023-11-18T06:16:16;4.70;;;4.30;;
14121;SDS011;7139;48.114;11.442;2023-11-18T06:18:45;5.00;;;4.60;;
14121;SDS011;7139;48.114;11.442;2023-11-18T06:21:13;5.03;;;4.63;;
14121;SDS011;7139;48.114;11.442;2023-11-18T06:23:40;4.40;;;4.00;;
14121;SDS011;7139;48.114;11.442;2023-11-18T06:26:07;5.50;;;4.30;;
14121;SDS011;7139;48.114;11.442;2023-11-18T06:28:37;4.60;;;4.13;;
14121;SDS011;7139;48.114;11.442;2023-11-18T06:31:05;4.90;;;4.40;;
14121;SDS011;7139;48.114;11.442;2023-11-18T06:33:36;5.17;;;4.67;;
14121;SDS011;7139;48.114;11.442;2023-11-18T06:36:05;4.50;;;4.10;;
14121;SDS011;7139;48.114;11.442;2023-11-18T06:38:32;6.27;;;4.60;;
14121;SDS011;7139;48.114;11.442;2023-11-18T06:41:00;5.30;;;4.80;;
14121;SDS011;7139;48.114;11.442;2023-11-18T06:43:30;5.83;;;4.93;;
14121;SDS011;7139;48.114;11.442;2023-11-18T06:46:12;4.80;;;4.40;;
14121;SDS011;7139;48.114;11.442;2023-11-18T06:48:39;4.50;;;4.10;;
14121;SDS011;7139;48.114;11.442;2023-11-18T06:51:06;5.47;;;4.67;;
14121;SDS011;7139;48.114;11.442;2023-11-18T06:53:34;4.47;;;4.07;;
14121;SDS011;7139;48.114;11.442;2023-11-18T06:56:01;5.40;;;4.10;;
14121;SDS011;7139;48.114;11.442;2023-11-18T06:58:28;4.73;;;4.33;;
14121;SDS011;7139;48.114;11.442;2023-11-18T07:00:55;5.50;;;4.10;;
14121;SDS011;7139;48.114;11.442;2023-11-18T07:03:24;4.70;;;4.20;;
14121;SDS011;7139;48.114;11.442;2023-11-18T07:05:52;5.03;;;4.60;;
14121;SDS011;7139;48.114;11.442;2023-11-18T07:08:19;5.00;;;4.40;;
14121;SDS011;7139;48.114;11.442;2023-11-18T07:10:46;5.13;;;4.63;;
14121;SDS011;7139;48.114;11.442;2023-11-18T07:13:13;4.90;;;4.43;;
14121;SDS011;7139;48.114;11.442;2023-11-18T07:15:41;4.97;;;4.57;;
14121;SDS011;7139;48.114;11.442;2023-11-18T07:18:09;5.33;;;4.83;;
14121;SDS011;7139;48.114;11.442;2023-11-18T07:20:38;4.97;;;4.57;;
14121;SDS011;7139;48.114;11.442;2023-11-18T07:23:05;4.97;;;4.57;;
14121;SDS011;7139;48.114;11.442;2023-11-18T07:25:33;5.57;;;5.07;;
14121;SDS011;7139;48.114;11.442;2023-11-18T07:28:00;5.07;;;4.53;;
14121;SDS011;7139;48.114;11.442;2023-11-18T07:30:28;5.60;;;4.83;;
14121;SDS011;7139;48.114;11.442;2023-11-18T07:32:55;4.87;;;4.47;;
14121;SDS011;7139;48.114;11.442;2023-11-18T07:35:25;5.20;;;4.53;;
14121;SDS011;7139;48.114;11.442;2023-11-18T07:37:54;5.30;;;4.80;;
14121;SDS011;7139;48.114;11.442;2023-11-18T07:40:21;5.37;;;4.33;;
14121;SDS011;7139;48.114;11.442;2023-11-18T07:42:53;5.07;;;4.63;;
14121;SDS011;7139;48.114;11.442;2023-11-18T07:45:21;5.43;;;4.93;;
14121;SDS011;7139;48.114;11.442;2023-11-18T07:47:49;5.00;;;4.50;;
14121;SDS011;7139;48.114;11.442;2023-11-18T07:50:17;5.07;;;4.67;;
14121;SDS011;7139;48.114;11.442;2023-11-18T07:52:45;5.33;;;4.80;;
14121;SDS011;7139;48.114;11.442;2023-11-18T07:55:13;5.20;;;4.63;;
14121;SDS011;7139;48.114;11.442;2023-11-18T07:57:40;5.73;;;5.23;;
14121;SDS011;7139;48.114;11.442;2023-11-18T08:00:08;4.83;;;4.43;;
14121;SDS011;7139;48.114;11.442;2023-11-18T08:02:36;5.37;;;4.80;;
14121;SDS011;7139;48.114;11.442;2023-11-18T08:05:03;6.17;;;4.90;;
14121;SDS011;7139;48.114;11.442;2023-11-18T08:07:32;5.90;;;5.20;;
14121;SDS011;7139;48.114;11.442;2023-11-18T08:09:59;5.47;;;4.97;;
14121;SDS011;7139;48.114;11.442;2023-11-18T08:12:30;5.60;;;5.10;;
14121;SDS011;7139;48.114;11.442;2023-11-18T08:14:57;5.37;;;4.53;;
14121;SDS011;7139;48.114;11.442;2023-11-18T08:17:24;5.60;;;5.10;;
14121;SDS011;7139;48.114;11.442;2023-11-18T08:19:51;5.20;;;4.70;;
14121;SDS011;7139;48.114;11.442;2023-11-18T08:22:18;4.57;;;4.17;;
14121;SDS011;7139;48.114;11.442;2023-11-18T08:24:48;4.93;;;4.43;;
14121;SDS011;7139;48.114;11.442;2023-11-18T08:27:15;4.47;;;4.07;;
14121;SDS011;7139;48.114;11.442;2023-11-18T08:29:43;4.80;;;4.40;;
14121;SDS011;7139;48.114;11.442;2023-11-18T08:32:13;4.20;;;3.80;;
14121;SDS011;7139;48.114;11.442;2023-11-18T08:34:40;4.17;;;3.87;;
14121;SDS011;7139;48.114;11.442;2023-11-18T08:37:08;4.00;;;3.70;;
14121;SDS011;7139;48.114;11.442;2023-11-18T08:39:35;3.93;;;3.60;;
14121;SDS011;7139;48.114;11.442;2023-11-18T08:42:03;3.83;;;3.43;;
14121;SDS011;7139;48.114;11.442;2023-11-18T08:44:29;4.20;;;3.67;;
14121;SDS011;7139;48.114;11.442;2023-11-18T08:46:58;4.27;;;3.87;;
14121;SDS011;7139;48.114;11.442;2023-11-18T08:49:26;3.70;;;3.40;;
14121;SDS011;7139;48.114;11.442;2023-11-18T08:51:59;3.93;;;3.63;;
14121;SDS011;7139;48.114;11.442;2023-11-18T08:54:26;3.90;;;3.60;;
14121;SDS011;7139;48.114;11.442;2023-11-18T08:57:02;3.70;;;3.40;;
14121;SDS011;7139;48.114;11.442;2023-11-18T08:59:29;4.03;;;3.63;;
14121;SDS011;7139;48.114;11.442;2023-11-18T09:01:59;3.93;;;3.63;;
14121;SDS011;7139;48.114;11.442;2023-11-18T09:04:33;4.03;;;3.63;;
14121;SDS011;7139;48.114;11.442;2023-11-18T09:07:01;4.07;;;3.30;;
14121;SDS011;7139;48.114;11.442;2023-11-18T09:09:29;3.77;;;3.47;;
14121;SDS011;7139;48.114;11.442;2023-11-18T09:11:58;3.67;;;3.37;;
14121;SDS011;7139;48.114;11.442;2023-11-18T09:14:27;3.50;;;3.20;;
14121;SDS011;7139;48.114;11.442;2023-11-18T09:16:56;3.73;;;3.27;;
14121;SDS011;7139;48.114;11.442;2023-11-18T09:19:25;3.50;;;3.20;;
14121;SDS011;7139;48.114;11.442;2023-11-18T09:21:52;3.50;;;3.20;;
14121;SDS011;7139;48.114;11.442;2023-11-18T09:24:20;3.23;;;2.97;;
14121;SDS011;7139;48.114;11.442;2023-11-18T09:26:49;3.80;;;3.50;;
14121;SDS011;7139;48.114;11.442;2023-11-18T09:29:17;3.50;;;3.20;;
14121;SDS011;7139;48.114;11.442;2023-11-18T09:31:46;4.23;;;3.43;;
14121;SDS011;7139;48.114;11.442;2023-11-18T09:34:14;4.17;;;3.77;;
14121;SDS011;7139;48.114;11.442;2023-11-18T09:36:43;3.60;;;3.30;;
14121;SDS011;7139;48.114;11.442;2023-11-18T09:39:10;4.30;;;3.07;;
14121;SDS011;7139;48.114;11.442;2023-11-18T09:41:54;4.47;;;2.90;;
14121;SDS011;7139;48.114;11.442;2023-11-18T09:44:21;4.23;;;3.00;;
14121;SDS011;7139;48.114;11.442;2023-11-18T09:46:50;4.20;;;3.70;;
14121;SDS011;7139;48.114;11.442;2023-11-18T09:49:29;3.83;;;3.00;;
14121;SDS011;7139;48.114;11.442;2023-11-18T09:52:05;4.00;;;3.60;;
14121;SDS011;7139;48.114;11.442;2023-11-18T09:54:34;3.00;;;2.30;;
14121;SDS011;7139;48.114;11.442;2023-11-18T09:57:04;2.70;;;2.50;;
14121;SDS011;7139;48.114;11.442;2023-11-18T09:59:37;2.60;;;2.40;;
14121;SDS011;7139;48.114;11.442;2023-11-18T10:02:09;2.53;;;2.33;;
14121;SDS011;7139;48.114;11.442;2023-11-18T10:04:37;2.73;;;2.40;;
14121;SDS011;7139;48.114;11.442;2023-11-18T10:07:05;2.53;;;2.33;;
14121;SDS011;7139;48.114;11.442;2023-11-18T10:09:35;2.13;;;2.00;;
14121;SDS011;7139;48.114;11.442;2023-11-18T10:12:04;2.00;;;1.90;;
14121;SDS011;7139;48.114;11.442;2023-11-18T10:14:32;2.40;;;2.20;;
14121;SDS011;7139;48.114;11.442;2023-11-18T10:16:59;2.40;;;2.20;;
14121;SDS011;7139;48.114;11.442;2023-11-18T10:22:19;2.40;;;2.20;;
14121;SDS011;7139;48.114;11.442;2023-11-18T10:24:48;2.43;;;2.20;;
14121;SDS011;7139;48.114;11.442;2023-11-18T10:27:19;2.53;;;2.33;;
14121;SDS011;7139;48.114;11.442;2023-11-18T10:29:47;3.23;;;2.40;;
14121;SDS011;7139;48.114;11.442;2023-11-18T10:32:15;2.50;;;2.10;;
14121;SDS011;7139;48.114;11.442;2023-11-18T10:34:46;2.50;;;2.30;;
14121;SDS011;7139;48.114;11.442;2023-11-18T10:37:14;2.70;;;2.10;;
14121;SDS011;7139;48.114;11.442;2023-11-18T10:39:43;2.60;;;2.40;;
14121;SDS011;7139;48.114;11.442;2023-11-18T10:42:13;3.60;;;2.40;;
14121;SDS011;7139;48.114;11.442;2023-11-18T10:44:53;2.90;;;2.60;;
14121;SDS011;7139;48.114;11.442;2023-11-18T10:47:32;2.53;;;2.33;;
14121;SDS011;7139;48.114;11.442;2023-11-18T10:50:00;3.17;;;2.87;;
14121;SDS011;7139;48.114;11.442;2023-11-18T10:52:28;4.53;;;4.03;;
14121;SDS011;7139;48.114;11.442;2023-11-18T10:55:01;13.57;;;11.53;;
14121;SDS011;7139;48.114;11.442;2023-11-18T10:57:38;4.47;;;4.07;;
14121;SDS011;7139;48.114;11.442;2023-11-18T11:00:07;6.33;;;5.37;;
14121;SDS011;7139;48.114;11.442;2023-11-18T11:02:39;6.70;;;5.63;;
14121;SDS011;7139;48.114;11.442;2023-11-18T11:05:07;6.77;;;4.33;;
14121;SDS011;7139;48.114;11.442;2023-11-18T11:07:40;5.90;;;4.27;;
14121;SDS011;7139;48.114;11.442;2023-11-18T11:10:10;2.07;;;1.87;;
14121;SDS011;7139;48.114;11.442;2023-11-18T11:12:43;7.13;;;4.90;;
14121;SDS011;7139;48.114;11.442;2023-11-18T11:15:17;5.23;;;4.73;;
14121;SDS011;7139;48.114;11.442;2023-11-18T11:17:48;7.23;;;6.73;;
14121;SDS011;7139;48.114;11.442;2023-11-18T11:20:21;4.20;;;3.30;;
14121;SDS011;7139;48.114;11.442;2023-11-18T11:22:56;2.70;;;2.50;;
14121;SDS011;7139;48.114;11.442;2023-11-18T11:25:40;1.97;;;1.83;;
14121;SDS011;7139;48.114;11.442;2023-11-18T11:28:10;2.77;;;2.57;;
14121;SDS011;7139;48.114;11.442;2023-11-18T11:30:40;2.23;;;2.00;;
14121;SDS011;7139;48.114;11.442;2023-11-18T11:33:12;1.97;;;1.77;;
14121;SDS011;7139;48.114;11.442;2023-11-18T11:35:42;2.70;;;1.90;;
14121;SDS011;7139;48.114;11.442;2023-11-18T11:38:13;2.00;;;1.90;;
14121;SDS011;7139;48.114;11.442;2023-11-18T11:40:43;2.93;;;1.83;;
14121;SDS011;7139;48.114;11.442;2023-11-18T11:43:12;2.10;;;1.90;;
14121;SDS011;7139;48.114;11.442;2023-11-18T11:45:46;2.43;;;1.80;;
14121;SDS011;7139;48.114;11.442;2023-11-18T11:48:13;1.43;;;1.33;;
14121;SDS011;7139;48.114;11.442;2023-11-18T11:50:55;3.40;;;2.20;;
14121;SDS011;7139;48.114;11.442;2023-11-18T11:53:29;2.13;;;1.70;;
14121;SDS011;7139;48.114;11.442;2023-11-18T11:55:59;1.70;;;1.60;;
14121;SDS011;7139;48.114;11.442;2023-11-18T11:58:32;1.60;;;1.50;;
14121;SDS011;7139;48.114;11.442;2023-11-18T12:01:01;3.43;;;1.90;;
14121;SDS011;7139;48.114;11.442;2023-11-18T12:03:33;1.90;;;1.60;;
14121;SDS011;7139;48.114;11.442;2023-11-18T12:06:05;2.37;;;1.60;;
14121;SDS011;7139;48.114;11.442;2023-11-18T12:08:35;2.10;;;1.90;;
14121;SDS011;7139;48.114;11.442;2023-11-18T12:14:20;8.63;;;7.60;;
14121;SDS011;7139;48.114;11.442;2023-11-18T12:17:10;2.37;;;1.73;;
14121;SDS011;7139;48.114;11.442;2023-11-18T12:19:49;1.97;;;1.87;;
14121;SDS011;7139;48.114;11.442;2023-11-18T12:22:23;3.43;;;1.77;;
14121;SDS011;7139;48.114;11.442;2023-11-18T12:27:43;2.27;;;2.00;;
14121;SDS011;7139;48.114;11.442;2023-11-18T12:33:05;2.70;;;1.80;;
14121;SDS011;7139;48.114;11.442;2023-11-18T12:35:37;2.20;;;1.80;;
14121;SDS011;7139;48.114;11.442;2023-11-18T12:40:53;2.37;;;1.60;;
14121;SDS011;7139;48.114;11.442;2023-11-18T12:43:27;2.17;;;1.50;;
14121;SDS011;7139;48.114;11.442;2023-11-18T12:48:47;1.93;;;1.50;;
14121;SDS011;7139;48.114;11.442;2023-11-18T12:51:16;1.60;;;1.50;;
14121;SDS011;7139;48.114;11.442;2023-11-18T12:53:47;2.70;;;1.43;;
14121;SDS011;7139;48.114;11.442;2023-11-18T12:56:16;2.03;;;1.50;;
14121;SDS011;7139;48.114;11.442;2023-11-18T12:58:44;1.93;;;1.70;;
14121;SDS011;7139;48.114;11.442;2023-11-18T13:01:12;2.93;;;1.67;;
14121;SDS011;7139;48.114;11.442;2023-11-18T13:03:40;2.37;;;1.80;;
14121;SDS011;7139;48.114;11.442;2023-11-18T13:06:10;1.93;;;1.30;;
14121;SDS011;7139;48.114;11.442;2023-11-18T13:08:38;1.47;;;1.37;;
14121;SDS011;7139;48.114;11.442;2023-11-18T13:11:05;1.93;;;1.50;;
14121;SDS011;7139;48.114;11.442;2023-11-18T13:13:37;3.37;;;1.73;;
14121;SDS011;7139;48.114;11.442;2023-11-18T13:16:05;2.07;;;1.70;;
14121;SDS011;7139;48.114;11.442;2023-11-18T13:18:41;2.00;;;1.40;;
14121;SDS011;7139;48.114;11.442;2023-11-18T13:21:08;1.73;;;1.57;;
14121;SDS011;7139;48.114;11.442;2023-11-18T13:23:41;2.87;;;2.00;;
14121;SDS011;7139;48.114;11.442;2023-11-18T13:26:08;2.30;;;2.00;;
14121;SDS011;7139;48.114;11.442;2023-11-18T13:28:36;3.17;;;1.67;;
14121;SDS011;7139;48.114;11.442;2023-11-18T13:31:05;3.27;;;1.60;;
14121;SDS011;7139;48.114;11.442;2023-11-18T13:33:36;3.20;;;1.60;;
14121;SDS011;7139;48.114;11.442;2023-11-18T13:36:03;2.10;;;1.90;;
14121;SDS011;7139;48.114;11.442;2023-11-18T13:38:30;2.03;;;1.80;;
14121;SDS011;7139;48.114;11.442;2023-11-18T13:40:59;2.03;;;1.47;;
14121;SDS011;7139;48.114;11.442;2023-11-18T13:43:28;5.00;;;3.90;;
14121;SDS011;7139;48.114;11.442;2023-11-18T13:45:55;9.77;;;8.77;;
14121;SDS011;7139;48.114;11.442;2023-11-18T13:48:25;3.80;;;3.40;;
14121;SDS011;7139;48.114;11.442;2023-11-18T13:50:54;1.93;;;1.70;;
14121;SDS011;7139;48.114;11.442;2023-11-18T13:53:22;2.60;;;1.60;;
14121;SDS011;7139;48.114;11.442;2023-11-18T13:55:50;1.57;;;1.40;;
14121;SDS011;7139;48.114;11.442;2023-11-18T13:58:18;3.30;;;1.93;;
14121;SDS011;7139;48.114;11.442;2023-11-18T14:00:46;1.90;;;1.70;;
14121;SDS011;7139;48.114;11.442;2023-11-18T14:03:13;3.00;;;2.07;;
14121;SDS011;7139;48.114;11.442;2023-11-18T14:05:42;3.67;;;2.50;;
14121;SDS011;7139;48.114;11.442;2023-11-18T14:08:10;2.27;;;2.03;;
14121;SDS011;7139;48.114;11.442;2023-11-18T14:10:44;2.20;;;2.00;;
14121;SDS011;7139;48.114;11.442;2023-11-18T14:13:14;3.77;;;1.90;;
14121;SDS011;7139;48.114;11.442;2023-11-18T14:15:43;2.07;;;1.80;;
14121;SDS011;7139;48.114;11.442;2023-11-18T14:18:12;3.23;;;2.00;;
14121;SDS011;7139;48.114;11.442;2023-11-18T14:20:39;2.90;;;2.10;;
14121;SDS011;7139;48.114;11.442;2023-11-18T14:23:06;3.37;;;1.97;;
14121;SDS011;7139;48.114;11.442;2023-11-18T14:25:33;2.77;;;2.40;;
14121;SDS011;7139;48.114;11.442;2023-11-18T14:28:01;2.60;;;1.90;;
14121;SDS011;7139;48.114;11.442;2023-11-18T14:30:29;2.17;;;1.87;;
14121;SDS011;7139;48.114;11.442;2023-11-18T14:32:57;3.33;;;1.80;;
14121;SDS011;7139;48.114;11.442;2023-11-18T14:35:25;3.43;;;1.80;;
14121;SDS011;7139;48.114;11.442;2023-11-18T14:37:52;1.60;;;1.50;;
14121;SDS011;7139;48.114;11.442;2023-11-18T14:40:19;1.77;;;1.40;;
14121;SDS011;7139;48.114;11.442;2023-11-18T14:42:49;2.90;;;1.70;;
14121;SDS011;7139;48.114;11.442;2023-11-18T14:45:16;1.67;;;1.50;;
14121;SDS011;7139;48.114;11.442;2023-11-18T14:47:44;2.73;;;1.53;;
14121;SDS011;7139;48.114;11.442;2023-11-18T14:50:14;2.13;;;1.70;;
14121;SDS011;7139;48.114;11.442;2023-11-18T14:52:42;2.67;;;1.90;;
14121;SDS011;7139;48.114;11.442;2023-11-18T14:55:10;2.20;;;1.70;;
14121;SDS011;7139;48.114;11.442;2023-11-18T14:57:38;3.30;;;1.70;;
14121;SDS011;7139;48.114;11.442;2023-11-18T15:00:06;2.63;;;1.90;;
14121;SDS011;7139;48.114;11.442;2023-11-18T15:02:43;4.47;;;1.87;;
14121;SDS011;7139;48.114;11.442;2023-11-18T15:05:11;2.37;;;1.83;;
14121;SDS011;7139;48.114;11.442;2023-11-18T15:07:39;5.10;;;2.00;;
14121;SDS011;7139;48.114;11.442;2023-11-18T15:10:07;3.50;;;2.40;;
14121;SDS011;7139;48.114;11.442;2023-11-18T15:12:35;3.43;;;2.50;;
14121;SDS011;7139;48.114;11.442;2023-11-18T15:15:02;3.70;;;2.33;;